sensor_id;sensor_type;location;lat;lon;timestamp;temperature;humidity
76785;SHT30;66893;44.316;0.092;2023-04-24T00:00:08;20.51;50.23
76785;SHT30;66893;44.316;0.092;2023-04-24T00:02:40;20.51;50.25
76785;SHT30;66893;44.316;0.092;2023-04-24T00:05:07;20.48;50.36
76785;SHT30;66893;44.316;0.092;2023-04-24T00:07:33;20.51;50.40
76785;SHT30;66893;44.316;0.092;2023-04-24T00:09:58;20.50;50.41
76785;SHT30;66893;44.316;0.092;2023-04-24T00:12:25;20.48;50.41
76785;SHT30;66893;44.316;0.092;2023-04-24T00:14:50;20.48;50.48
76785;SHT30;66893;44.316;0.092;2023-04-24T00:17:16;20.47;50.57
76785;SHT30;66893;44.316;0.092;2023-04-24T00:19:45;20.44;50.62
76785;SHT30;66893;44.316;0.092;2023-04-24T00:22:11;20.43;50.73
76785;SHT30;66893;44.316;0.092;2023-04-24T00:24:38;20.40;50.69
76785;SHT30;66893;44.316;0.092;2023-04-24T00:27:03;20.41;50.77
76785;SHT30;66893;44.316;0.092;2023-04-24T00:29:29;20.41;50.81
76785;SHT30;66893;44.316;0.092;2023-04-24T00:31:54;20.40;50.84
76785;SHT30;66893;44.316;0.092;2023-04-24T00:34:20;20.37;50.96
76785;SHT30;66893;44.316;0.092;2023-04-24T00:36:45;20.39;50.98
76785;SHT30;66893;44.316;0.092;2023-04-24T00:39:11;20.34;51.01
76785;SHT30;66893;44.316;0.092;2023-04-24T00:41:37;20.36;51.06
76785;SHT30;66893;44.316;0.092;2023-04-24T00:44:02;20.33;51.15
76785;SHT30;66893;44.316;0.092;2023-04-24T00:46:28;20.30;51.17
76785;SHT30;66893;44.316;0.092;2023-04-24T00:48:56;20.32;51.27
76785;SHT30;66893;44.316;0.092;2023-04-24T00:51:21;20.33;51.22
76785;SHT30;66893;44.316;0.092;2023-04-24T00:53:47;20.30;51.29
76785;SHT30;66893;44.316;0.092;2023-04-24T00:56:13;20.29;51.31
76785;SHT30;66893;44.316;0.092;2023-04-24T00:58:39;20.27;51.42
76785;SHT30;66893;44.316;0.092;2023-04-24T01:01:06;20.30;51.33
76785;SHT30;66893;44.316;0.092;2023-04-24T01:03:33;20.27;51.50
76785;SHT30;66893;44.316;0.092;2023-04-24T01:05:58;20.26;51.51
76785;SHT30;66893;44.316;0.092;2023-04-24T01:08:25;20.27;51.54
76785;SHT30;66893;44.316;0.092;2023-04-24T01:10:52;20.24;51.58
76785;SHT30;66893;44.316;0.092;2023-04-24T01:13:20;20.24;51.60
76785;SHT30;66893;44.316;0.092;2023-04-24T01:15:47;20.24;51.62
76785;SHT30;66893;44.316;0.092;2023-04-24T01:18:13;20.22;51.66
76785;SHT30;66893;44.316;0.092;2023-04-24T01:20:42;20.23;51.72
76785;SHT30;66893;44.316;0.092;2023-04-24T01:23:10;20.20;51.73
76785;SHT30;66893;44.316;0.092;2023-04-24T01:25:36;20.20;51.78
76785;SHT30;66893;44.316;0.092;2023-04-24T01:28:02;20.20;51.80
76785;SHT30;66893;44.316;0.092;2023-04-24T01:30:28;20.20;51.87
76785;SHT30;66893;44.316;0.092;2023-04-24T01:32:55;20.20;51.88
76785;SHT30;66893;44.316;0.092;2023-04-24T01:35:21;20.17;51.88
76785;SHT30;66893;44.316;0.092;2023-04-24T01:37:46;20.17;51.93
76785;SHT30;66893;44.316;0.092;2023-04-24T01:40:12;20.17;51.99
76785;SHT30;66893;44.316;0.092;2023-04-24T01:42:38;20.17;51.98
76785;SHT30;66893;44.316;0.092;2023-04-24T01:45:04;20.15;52.02
76785;SHT30;66893;44.316;0.092;2023-04-24T01:47:31;20.17;52.03
76785;SHT30;66893;44.316;0.092;2023-04-24T01:49:57;20.13;52.05
76785;SHT30;66893;44.316;0.092;2023-04-24T01:52:23;20.12;52.12
76785;SHT30;66893;44.316;0.092;2023-04-24T01:54:48;20.15;52.10
76785;SHT30;66893;44.316;0.092;2023-04-24T01:57:14;20.12;52.12
76785;SHT30;66893;44.316;0.092;2023-04-24T01:59:41;20.12;52.16
76785;SHT30;66893;44.316;0.092;2023-04-24T02:02:07;20.10;52.19
76785;SHT30;66893;44.316;0.092;2023-04-24T02:04:32;20.10;52.21
76785;SHT30;66893;44.316;0.092;2023-04-24T02:06:57;20.10;52.27
76785;SHT30;66893;44.316;0.092;2023-04-24T02:09:23;20.08;52.25
76785;SHT30;66893;44.316;0.092;2023-04-24T02:11:48;20.06;52.28
76785;SHT30;66893;44.316;0.092;2023-04-24T02:14:14;20.08;52.37
76785;SHT30;66893;44.316;0.092;2023-04-24T02:16:39;20.06;52.35
76785;SHT30;66893;44.316;0.092;2023-04-24T02:19:05;20.06;52.38
76785;SHT30;66893;44.316;0.092;2023-04-24T02:21:30;20.06;52.42
76785;SHT30;66893;44.316;0.092;2023-04-24T02:23:56;20.05;52.53
76785;SHT30;66893;44.316;0.092;2023-04-24T02:26:22;20.04;52.50
76785;SHT30;66893;44.316;0.092;2023-04-24T02:28:47;20.04;52.50
76785;SHT30;66893;44.316;0.092;2023-04-24T02:31:12;20.04;52.57
76785;SHT30;66893;44.316;0.092;2023-04-24T02:33:38;20.05;52.60
76785;SHT30;66893;44.316;0.092;2023-04-24T02:36:03;20.00;52.63
76785;SHT30;66893;44.316;0.092;2023-04-24T02:38:29;20.00;52.65
76785;SHT30;66893;44.316;0.092;2023-04-24T02:40:55;20.02;52.67
76785;SHT30;66893;44.316;0.092;2023-04-24T02:43:20;20.02;52.69
76785;SHT30;66893;44.316;0.092;2023-04-24T02:45:46;19.99;52.69
76785;SHT30;66893;44.316;0.092;2023-04-24T02:48:11;20.00;52.76
76785;SHT30;66893;44.316;0.092;2023-04-24T02:50:37;19.99;52.81
76785;SHT30;66893;44.316;0.092;2023-04-24T02:53:02;20.00;52.76
76785;SHT30;66893;44.316;0.092;2023-04-24T02:55:28;19.99;52.84
76785;SHT30;66893;44.316;0.092;2023-04-24T02:57:54;19.96;52.79
76785;SHT30;66893;44.316;0.092;2023-04-24T03:00:19;19.98;52.90
76785;SHT30;66893;44.316;0.092;2023-04-24T03:02:45;19.98;52.89
76785;SHT30;66893;44.316;0.092;2023-04-24T03:05:10;19.95;52.94
76785;SHT30;66893;44.316;0.092;2023-04-24T03:07:37;19.95;52.96
76785;SHT30;66893;44.316;0.092;2023-04-24T03:10:04;19.96;52.97
76785;SHT30;66893;44.316;0.092;2023-04-24T03:12:31;19.95;52.99
76785;SHT30;66893;44.316;0.092;2023-04-24T03:14:56;19.95;53.05
76785;SHT30;66893;44.316;0.092;2023-04-24T03:17:22;19.93;53.07
76785;SHT30;66893;44.316;0.092;2023-04-24T03:19:47;19.89;53.10
76785;SHT30;66893;44.316;0.092;2023-04-24T03:22:13;19.92;53.13
76785;SHT30;66893;44.316;0.092;2023-04-24T03:24:38;19.92;53.18
76785;SHT30;66893;44.316;0.092;2023-04-24T03:27:04;19.90;53.13
76785;SHT30;66893;44.316;0.092;2023-04-24T03:29:30;19.90;53.18
76785;SHT30;66893;44.316;0.092;2023-04-24T03:31:55;19.86;53.23
76785;SHT30;66893;44.316;0.092;2023-04-24T03:34:20;19.88;53.24
76785;SHT30;66893;44.316;0.092;2023-04-24T03:36:46;19.86;53.26
76785;SHT30;66893;44.316;0.092;2023-04-24T03:39:13;19.88;53.32
76785;SHT30;66893;44.316;0.092;2023-04-24T03:41:38;19.86;53.32
76785;SHT30;66893;44.316;0.092;2023-04-24T03:44:04;19.86;53.34
76785;SHT30;66893;44.316;0.092;2023-04-24T03:46:29;19.85;53.35
76785;SHT30;66893;44.316;0.092;2023-04-24T03:48:55;19.82;53.36
76785;SHT30;66893;44.316;0.092;2023-04-24T03:51:20;19.85;53.39
76785;SHT30;66893;44.316;0.092;2023-04-24T03:53:47;19.83;53.39
76785;SHT30;66893;44.316;0.092;2023-04-24T03:56:12;19.82;53.39
76785;SHT30;66893;44.316;0.092;2023-04-24T03:58:38;19.81;53.41
76785;SHT30;66893;44.316;0.092;2023-04-24T04:01:03;19.83;53.48
76785;SHT30;66893;44.316;0.092;2023-04-24T04:03:28;19.82;53.45
76785;SHT30;66893;44.316;0.092;2023-04-24T04:05:54;19.81;53.49
76785;SHT30;66893;44.316;0.092;2023-04-24T04:08:20;19.81;53.50
76785;SHT30;66893;44.316;0.092;2023-04-24T04:10:45;19.79;53.54
76785;SHT30;66893;44.316;0.092;2023-04-24T04:13:10;19.77;53.55
76785;SHT30;66893;44.316;0.092;2023-04-24T04:15:36;19.79;53.55
76785;SHT30;66893;44.316;0.092;2023-04-24T04:18:01;19.77;53.61
76785;SHT30;66893;44.316;0.092;2023-04-24T04:20:27;19.77;53.62
76785;SHT30;66893;44.316;0.092;2023-04-24T04:22:52;19.78;53.64
76785;SHT30;66893;44.316;0.092;2023-04-24T04:25:18;19.77;53.59
76785;SHT30;66893;44.316;0.092;2023-04-24T04:27:45;19.74;53.63
76785;SHT30;66893;44.316;0.092;2023-04-24T04:30:13;19.74;53.67
76785;SHT30;66893;44.316;0.092;2023-04-24T04:32:39;19.74;53.70
76785;SHT30;66893;44.316;0.092;2023-04-24T04:35:04;19.74;53.74
76785;SHT30;66893;44.316;0.092;2023-04-24T04:37:31;19.75;53.69
76785;SHT30;66893;44.316;0.092;2023-04-24T04:39:57;19.74;53.72
76785;SHT30;66893;44.316;0.092;2023-04-24T04:42:26;19.72;53.72
76785;SHT30;66893;44.316;0.092;2023-04-24T04:44:53;19.71;53.73
76785;SHT30;66893;44.316;0.092;2023-04-24T04:47:20;19.72;53.72
76785;SHT30;66893;44.316;0.092;2023-04-24T04:49:48;19.72;53.70
76785;SHT30;66893;44.316;0.092;2023-04-24T04:52:13;19.69;53.71
76785;SHT30;66893;44.316;0.092;2023-04-24T04:54:39;19.69;53.76
76785;SHT30;66893;44.316;0.092;2023-04-24T04:57:05;19.69;53.71
76785;SHT30;66893;44.316;0.092;2023-04-24T04:59:31;19.69;53.74
76785;SHT30;66893;44.316;0.092;2023-04-24T05:01:56;19.67;53.77
76785;SHT30;66893;44.316;0.092;2023-04-24T05:04:22;19.67;53.70
76785;SHT30;66893;44.316;0.092;2023-04-24T05:06:47;19.65;53.67
76785;SHT30;66893;44.316;0.092;2023-04-24T05:09:13;19.65;53.77
76785;SHT30;66893;44.316;0.092;2023-04-24T05:11:38;19.64;53.70
76785;SHT30;66893;44.316;0.092;2023-04-24T05:14:04;19.65;53.72
76785;SHT30;66893;44.316;0.092;2023-04-24T05:16:29;19.64;53.73
76785;SHT30;66893;44.316;0.092;2023-04-24T05:18:56;19.65;53.68
76785;SHT30;66893;44.316;0.092;2023-04-24T05:21:21;19.65;53.67
76785;SHT30;66893;44.316;0.092;2023-04-24T05:23:47;19.65;53.69
76785;SHT30;66893;44.316;0.092;2023-04-24T05:26:13;19.64;53.71
76785;SHT30;66893;44.316;0.092;2023-04-24T05:28:38;19.62;53.70
76785;SHT30;66893;44.316;0.092;2023-04-24T05:31:04;19.61;53.69
76785;SHT30;66893;44.316;0.092;2023-04-24T05:33:29;19.61;53.69
76785;SHT30;66893;44.316;0.092;2023-04-24T05:35:55;19.62;53.66
76785;SHT30;66893;44.316;0.092;2023-04-24T05:38:21;19.64;53.72
76785;SHT30;66893;44.316;0.092;2023-04-24T05:40:46;19.65;53.65
76785;SHT30;66893;44.316;0.092;2023-04-24T05:43:12;19.65;53.60
76785;SHT30;66893;44.316;0.092;2023-04-24T05:45:38;19.67;53.63
76785;SHT30;66893;44.316;0.092;2023-04-24T05:48:03;19.65;53.61
76785;SHT30;66893;44.316;0.092;2023-04-24T05:50:29;19.68;53.62
76785;SHT30;66893;44.316;0.092;2023-04-24T05:52:55;19.68;53.58
76785;SHT30;66893;44.316;0.092;2023-04-24T05:55:23;19.67;53.59
76785;SHT30;66893;44.316;0.092;2023-04-24T05:57:49;19.68;53.63
76785;SHT30;66893;44.316;0.092;2023-04-24T06:00:15;19.68;53.56
76785;SHT30;66893;44.316;0.092;2023-04-24T06:02:41;19.64;53.56
76785;SHT30;66893;44.316;0.092;2023-04-24T06:05:06;19.67;53.54
76785;SHT30;66893;44.316;0.092;2023-04-24T06:07:33;19.68;53.58
76785;SHT30;66893;44.316;0.092;2023-04-24T06:09:59;19.65;53.55
76785;SHT30;66893;44.316;0.092;2023-04-24T06:12:25;19.69;53.46
76785;SHT30;66893;44.316;0.092;2023-04-24T06:14:51;19.61;53.63
76785;SHT30;66893;44.316;0.092;2023-04-24T06:17:16;19.58;53.71
76785;SHT30;66893;44.316;0.092;2023-04-24T06:19:43;19.58;53.81
76785;SHT30;66893;44.316;0.092;2023-04-24T06:22:09;19.60;53.78
76785;SHT30;66893;44.316;0.092;2023-04-24T06:24:34;19.57;53.80
76785;SHT30;66893;44.316;0.092;2023-04-24T06:27:00;19.57;53.80
76785;SHT30;66893;44.316;0.092;2023-04-24T06:29:26;19.61;53.80
76785;SHT30;66893;44.316;0.092;2023-04-24T06:31:52;19.61;53.76
76785;SHT30;66893;44.316;0.092;2023-04-24T06:34:17;19.64;53.82
76785;SHT30;66893;44.316;0.092;2023-04-24T06:36:43;19.62;53.79
76785;SHT30;66893;44.316;0.092;2023-04-24T06:39:09;19.65;53.78
76785;SHT30;66893;44.316;0.092;2023-04-24T06:41:34;19.65;53.70
76785;SHT30;66893;44.316;0.092;2023-04-24T06:44:00;19.68;53.68
76785;SHT30;66893;44.316;0.092;2023-04-24T06:46:25;19.67;53.65
76785;SHT30;66893;44.316;0.092;2023-04-24T06:48:53;19.69;53.62
76785;SHT30;66893;44.316;0.092;2023-04-24T06:51:23;19.69;53.60
76785;SHT30;66893;44.316;0.092;2023-04-24T06:53:48;19.72;53.58
76785;SHT30;66893;44.316;0.092;2023-04-24T06:56:15;19.72;53.52
76785;SHT30;66893;44.316;0.092;2023-04-24T06:58:40;19.71;53.50
76785;SHT30;66893;44.316;0.092;2023-04-24T07:01:06;19.75;53.42
76785;SHT30;66893;44.316;0.092;2023-04-24T07:03:31;19.77;53.37
76785;SHT30;66893;44.316;0.092;2023-04-24T07:05:56;19.77;53.28
76785;SHT30;66893;44.316;0.092;2023-04-24T07:08:23;19.78;53.23
76785;SHT30;66893;44.316;0.092;2023-04-24T07:10:49;19.78;53.21
76785;SHT30;66893;44.316;0.092;2023-04-24T07:13:16;19.79;53.17
76785;SHT30;66893;44.316;0.092;2023-04-24T07:15:42;19.83;53.08
76785;SHT30;66893;44.316;0.092;2023-04-24T07:18:07;19.85;53.04
76785;SHT30;66893;44.316;0.092;2023-04-24T07:20:34;19.88;52.92
76785;SHT30;66893;44.316;0.092;2023-04-24T07:22:59;19.86;52.85
76785;SHT30;66893;44.316;0.092;2023-04-24T07:25:25;19.90;52.75
76785;SHT30;66893;44.316;0.092;2023-04-24T07:27:50;19.93;52.69
76785;SHT30;66893;44.316;0.092;2023-04-24T07:30:16;19.96;52.56
76785;SHT30;66893;44.316;0.092;2023-04-24T07:32:41;19.98;52.52
76785;SHT30;66893;44.316;0.092;2023-04-24T07:35:07;19.99;52.37
76785;SHT30;66893;44.316;0.092;2023-04-24T07:37:34;19.99;52.32
76785;SHT30;66893;44.316;0.092;2023-04-24T07:40:00;19.99;52.25
76785;SHT30;66893;44.316;0.092;2023-04-24T07:42:25;20.02;52.19
76785;SHT30;66893;44.316;0.092;2023-04-24T07:44:51;20.05;52.12
76785;SHT30;66893;44.316;0.092;2023-04-24T07:47:16;20.06;52.07
76785;SHT30;66893;44.316;0.092;2023-04-24T07:49:42;20.06;51.96
76785;SHT30;66893;44.316;0.092;2023-04-24T07:52:08;20.08;51.95
76785;SHT30;66893;44.316;0.092;2023-04-24T07:54:33;20.09;51.87
76785;SHT30;66893;44.316;0.092;2023-04-24T07:56:59;20.12;51.79
76785;SHT30;66893;44.316;0.092;2023-04-24T07:59:25;20.15;51.65
76785;SHT30;66893;44.316;0.092;2023-04-24T08:01:51;20.15;51.59
76785;SHT30;66893;44.316;0.092;2023-04-24T08:04:16;20.19;51.47
76785;SHT30;66893;44.316;0.092;2023-04-24T08:06:43;20.20;51.37
76785;SHT30;66893;44.316;0.092;2023-04-24T08:09:08;20.26;51.31
76785;SHT30;66893;44.316;0.092;2023-04-24T08:11:34;20.27;51.19
76785;SHT30;66893;44.316;0.092;2023-04-24T08:13:59;20.30;51.03
76785;SHT30;66893;44.316;0.092;2023-04-24T08:16:25;20.33;50.87
76785;SHT30;66893;44.316;0.092;2023-04-24T08:18:51;20.33;50.81
76785;SHT30;66893;44.316;0.092;2023-04-24T08:21:16;20.34;50.78
76785;SHT30;66893;44.316;0.092;2023-04-24T08:23:44;20.34;50.82
76785;SHT30;66893;44.316;0.092;2023-04-24T08:26:11;20.39;50.70
76785;SHT30;66893;44.316;0.092;2023-04-24T08:28:37;20.41;50.66
76785;SHT30;66893;44.316;0.092;2023-04-24T08:31:02;20.44;50.48
76785;SHT30;66893;44.316;0.092;2023-04-24T08:33:28;20.45;50.39
76785;SHT30;66893;44.316;0.092;2023-04-24T08:36:02;20.51;50.28
76785;SHT30;66893;44.316;0.092;2023-04-24T08:38:28;20.54;50.12
76785;SHT30;66893;44.316;0.092;2023-04-24T08:40:54;20.60;50.10
76785;SHT30;66893;44.316;0.092;2023-04-24T08:43:21;20.63;50.00
76785;SHT30;66893;44.316;0.092;2023-04-24T08:45:47;20.65;49.55
76785;SHT30;66893;44.316;0.092;2023-04-24T08:48:13;20.67;49.25
76785;SHT30;66893;44.316;0.092;2023-04-24T08:50:40;20.65;48.92
76785;SHT30;66893;44.316;0.092;2023-04-24T08:53:08;20.64;48.98
76785;SHT30;66893;44.316;0.092;2023-04-24T08:55:34;20.64;48.80
76785;SHT30;66893;44.316;0.092;2023-04-24T08:58:00;20.63;48.72
76785;SHT30;66893;44.316;0.092;2023-04-24T09:00:26;20.61;48.47
76785;SHT30;66893;44.316;0.092;2023-04-24T09:02:53;20.60;48.60
76785;SHT30;66893;44.316;0.092;2023-04-24T09:05:20;20.60;48.52
76785;SHT30;66893;44.316;0.092;2023-04-24T09:07:51;20.58;48.50
76785;SHT30;66893;44.316;0.092;2023-04-24T09:10:18;20.60;48.56
76785;SHT30;66893;44.316;0.092;2023-04-24T09:12:44;20.57;48.62
76785;SHT30;66893;44.316;0.092;2023-04-24T09:15:11;20.63;48.50
76785;SHT30;66893;44.316;0.092;2023-04-24T09:17:37;20.63;48.48
76785;SHT30;66893;44.316;0.092;2023-04-24T09:20:03;20.64;48.03
76785;SHT30;66893;44.316;0.092;2023-04-24T09:22:30;20.67;48.01
76785;SHT30;66893;44.316;0.092;2023-04-24T09:25:07;20.68;47.93
76785;SHT30;66893;44.316;0.092;2023-04-24T09:27:33;20.70;47.86
76785;SHT30;66893;44.316;0.092;2023-04-24T09:30:00;20.68;47.34
76785;SHT30;66893;44.316;0.092;2023-04-24T09:32:26;20.71;47.63
76785;SHT30;66893;44.316;0.092;2023-04-24T09:35:25;20.72;47.62
76785;SHT30;66893;44.316;0.092;2023-04-24T09:37:50;20.74;47.34
76785;SHT30;66893;44.316;0.092;2023-04-24T09:40:20;20.72;47.06
76785;SHT30;66893;44.316;0.092;2023-04-24T09:42:54;20.74;47.09
76785;SHT30;66893;44.316;0.092;2023-04-24T09:45:21;20.74;46.98
76785;SHT30;66893;44.316;0.092;2023-04-24T09:47:51;20.75;47.10
76785;SHT30;66893;44.316;0.092;2023-04-24T09:50:17;20.74;46.89
76785;SHT30;66893;44.316;0.092;2023-04-24T09:52:44;20.77;46.97
76785;SHT30;66893;44.316;0.092;2023-04-24T09:55:19;20.78;46.85
76785;SHT30;66893;44.316;0.092;2023-04-24T10:00:26;20.77;46.75
76785;SHT30;66893;44.316;0.092;2023-04-24T10:03:05;20.75;46.87
76785;SHT30;66893;44.316;0.092;2023-04-24T10:05:37;20.78;46.93
76785;SHT30;66893;44.316;0.092;2023-04-24T10:08:08;20.79;47.11
76785;SHT30;66893;44.316;0.092;2023-04-24T10:10:38;20.81;47.05
76785;SHT30;66893;44.316;0.092;2023-04-24T10:13:04;20.82;46.86
76785;SHT30;66893;44.316;0.092;2023-04-24T10:15:30;20.82;46.77
76785;SHT30;66893;44.316;0.092;2023-04-24T10:17:59;20.84;46.72
76785;SHT30;66893;44.316;0.092;2023-04-24T10:20:27;20.82;46.89
76785;SHT30;66893;44.316;0.092;2023-04-24T10:22:55;20.88;47.10
76785;SHT30;66893;44.316;0.092;2023-04-24T10:25:28;20.91;46.90
76785;SHT30;66893;44.316;0.092;2023-04-24T10:27:56;20.94;46.91
76785;SHT30;66893;44.316;0.092;2023-04-24T10:30:23;20.94;46.85
76785;SHT30;66893;44.316;0.092;2023-04-24T10:32:49;20.92;46.77
76785;SHT30;66893;44.316;0.092;2023-04-24T10:35:15;20.98;46.74
76785;SHT30;66893;44.316;0.092;2023-04-24T10:37:49;21.05;46.77
76785;SHT30;66893;44.316;0.092;2023-04-24T10:40:25;21.13;46.62
76785;SHT30;66893;44.316;0.092;2023-04-24T10:42:52;21.22;46.55
76785;SHT30;66893;44.316;0.092;2023-04-24T10:45:22;21.23;46.58
76785;SHT30;66893;44.316;0.092;2023-04-24T10:47:52;21.27;46.66
76785;SHT30;66893;44.316;0.092;2023-04-24T10:50:18;21.30;46.48
76785;SHT30;66893;44.316;0.092;2023-04-24T10:52:48;21.29;46.53
76785;SHT30;66893;44.316;0.092;2023-04-24T10:55:16;21.29;46.53
76785;SHT30;66893;44.316;0.092;2023-04-24T10:58:04;21.29;46.66
76785;SHT30;66893;44.316;0.092;2023-04-24T11:00:29;21.32;46.65
76785;SHT30;66893;44.316;0.092;2023-04-24T11:02:55;21.30;46.78
76785;SHT30;66893;44.316;0.092;2023-04-24T11:05:22;21.26;46.82
76785;SHT30;66893;44.316;0.092;2023-04-24T11:08:10;21.27;46.83
76785;SHT30;66893;44.316;0.092;2023-04-24T11:10:55;21.25;47.11
76785;SHT30;66893;44.316;0.092;2023-04-24T11:13:22;21.22;47.07
76785;SHT30;66893;44.316;0.092;2023-04-24T11:16:13;21.20;47.05
76785;SHT30;66893;44.316;0.092;2023-04-24T11:18:42;21.23;47.07
76785;SHT30;66893;44.316;0.092;2023-04-24T11:21:16;21.23;47.16
76785;SHT30;66893;44.316;0.092;2023-04-24T11:23:42;21.22;47.22
76785;SHT30;66893;44.316;0.092;2023-04-24T11:26:18;21.20;47.32
76785;SHT30;66893;44.316;0.092;2023-04-24T11:28:49;21.20;47.37
76785;SHT30;66893;44.316;0.092;2023-04-24T11:31:34;21.22;47.28
76785;SHT30;66893;44.316;0.092;2023-04-24T11:34:10;21.20;47.08
76785;SHT30;66893;44.316;0.092;2023-04-24T11:36:36;21.18;47.27
76785;SHT30;66893;44.316;0.092;2023-04-24T11:39:02;21.16;47.31
76785;SHT30;66893;44.316;0.092;2023-04-24T11:41:28;21.18;47.25
76785;SHT30;66893;44.316;0.092;2023-04-24T11:43:54;21.15;47.21
76785;SHT30;66893;44.316;0.092;2023-04-24T11:46:21;21.12;47.10
76785;SHT30;66893;44.316;0.092;2023-04-24T11:48:47;21.10;47.17
76785;SHT30;66893;44.316;0.092;2023-04-24T11:51:15;21.12;47.21
76785;SHT30;66893;44.316;0.092;2023-04-24T11:53:41;21.16;47.29
76785;SHT30;66893;44.316;0.092;2023-04-24T11:56:08;21.19;47.13
76785;SHT30;66893;44.316;0.092;2023-04-24T11:58:38;21.27;47.12
76785;SHT30;66893;44.316;0.092;2023-04-24T12:01:04;21.36;47.06
76785;SHT30;66893;44.316;0.092;2023-04-24T12:03:30;21.50;47.09
76785;SHT30;66893;44.316;0.092;2023-04-24T12:06:10;21.61;46.93
76785;SHT30;66893;44.316;0.092;2023-04-24T12:08:36;21.68;46.97
76785;SHT30;66893;44.316;0.092;2023-04-24T12:11:03;21.70;46.91
76785;SHT30;66893;44.316;0.092;2023-04-24T12:13:29;21.74;46.92
76785;SHT30;66893;44.316;0.092;2023-04-24T12:15:56;21.77;46.97
76785;SHT30;66893;44.316;0.092;2023-04-24T12:18:24;21.81;47.02
76785;SHT30;66893;44.316;0.092;2023-04-24T12:20:50;21.82;46.84
76785;SHT30;66893;44.316;0.092;2023-04-24T12:23:16;21.82;46.99
76785;SHT30;66893;44.316;0.092;2023-04-24T12:25:43;21.80;47.05
76785;SHT30;66893;44.316;0.092;2023-04-24T12:28:12;21.80;47.02
76785;SHT30;66893;44.316;0.092;2023-04-24T12:30:43;21.80;47.03
76785;SHT30;66893;44.316;0.092;2023-04-24T12:33:19;21.82;46.94
76785;SHT30;66893;44.316;0.092;2023-04-24T12:35:45;21.85;46.80
76785;SHT30;66893;44.316;0.092;2023-04-24T12:38:13;21.92;46.83
76785;SHT30;66893;44.316;0.092;2023-04-24T12:40:40;21.97;47.05
76785;SHT30;66893;44.316;0.092;2023-04-24T12:43:17;22.05;46.95
76785;SHT30;66893;44.316;0.092;2023-04-24T12:45:43;22.12;46.69
76785;SHT30;66893;44.316;0.092;2023-04-24T12:48:10;22.16;46.75
76785;SHT30;66893;44.316;0.092;2023-04-24T12:50:35;22.22;46.60
76785;SHT30;66893;44.316;0.092;2023-04-24T12:53:01;22.23;46.68
76785;SHT30;66893;44.316;0.092;2023-04-24T12:55:26;22.23;46.63
76785;SHT30;66893;44.316;0.092;2023-04-24T12:57:52;22.22;46.68
76785;SHT30;66893;44.316;0.092;2023-04-24T13:00:20;22.20;46.75
76785;SHT30;66893;44.316;0.092;2023-04-24T13:02:46;22.16;46.85
76785;SHT30;66893;44.316;0.092;2023-04-24T13:05:11;22.15;46.85
76785;SHT30;66893;44.316;0.092;2023-04-24T13:07:39;22.15;46.92
76785;SHT30;66893;44.316;0.092;2023-04-24T13:10:05;22.17;46.83
76785;SHT30;66893;44.316;0.092;2023-04-24T13:12:31;22.20;46.82
76785;SHT30;66893;44.316;0.092;2023-04-24T13:14:58;22.26;46.81
76785;SHT30;66893;44.316;0.092;2023-04-24T13:17:24;22.26;46.90
76785;SHT30;66893;44.316;0.092;2023-04-24T13:19:50;22.28;46.80
76785;SHT30;66893;44.316;0.092;2023-04-24T13:22:17;22.29;46.79
76785;SHT30;66893;44.316;0.092;2023-04-24T13:24:46;22.32;46.74
76785;SHT30;66893;44.316;0.092;2023-04-24T13:27:14;22.35;46.74
76785;SHT30;66893;44.316;0.092;2023-04-24T13:29:40;22.39;46.70
76785;SHT30;66893;44.316;0.092;2023-04-24T13:32:05;22.42;46.69
76785;SHT30;66893;44.316;0.092;2023-04-24T13:34:31;22.50;46.60
76785;SHT30;66893;44.316;0.092;2023-04-24T13:36:57;22.60;46.44
76785;SHT30;66893;44.316;0.092;2023-04-24T13:39:24;22.68;46.35
76785;SHT30;66893;44.316;0.092;2023-04-24T13:41:50;22.75;46.33
76785;SHT30;66893;44.316;0.092;2023-04-24T13:44:17;22.80;46.29
76785;SHT30;66893;44.316;0.092;2023-04-24T13:46:44;22.84;46.35
76785;SHT30;66893;44.316;0.092;2023-04-24T13:49:10;22.90;46.40
76785;SHT30;66893;44.316;0.092;2023-04-24T13:51:36;22.95;46.38
76785;SHT30;66893;44.316;0.092;2023-04-24T13:54:02;23.01;46.21
76785;SHT30;66893;44.316;0.092;2023-04-24T13:56:27;23.08;46.12
76785;SHT30;66893;44.316;0.092;2023-04-24T13:58:53;23.11;46.10
76785;SHT30;66893;44.316;0.092;2023-04-24T14:01:22;23.07;46.09
76785;SHT30;66893;44.316;0.092;2023-04-24T14:03:52;23.05;46.21
76785;SHT30;66893;44.316;0.092;2023-04-24T14:06:19;23.05;46.15
76785;SHT30;66893;44.316;0.092;2023-04-24T14:08:45;23.07;46.22
76785;SHT30;66893;44.316;0.092;2023-04-24T14:11:10;23.01;46.20
76785;SHT30;66893;44.316;0.092;2023-04-24T14:13:37;22.98;46.19
76785;SHT30;66893;44.316;0.092;2023-04-24T14:16:03;22.99;46.20
76785;SHT30;66893;44.316;0.092;2023-04-24T14:18:29;22.98;46.23
76785;SHT30;66893;44.316;0.092;2023-04-24T14:20:55;23.02;46.18
76785;SHT30;66893;44.316;0.092;2023-04-24T14:23:20;23.01;46.23
76785;SHT30;66893;44.316;0.092;2023-04-24T14:25:45;22.95;46.21
76785;SHT30;66893;44.316;0.092;2023-04-24T14:28:13;22.91;46.28
76785;SHT30;66893;44.316;0.092;2023-04-24T14:30:39;22.86;46.34
76785;SHT30;66893;44.316;0.092;2023-04-24T14:33:05;22.80;46.44
76785;SHT30;66893;44.316;0.092;2023-04-24T14:35:31;22.75;46.46
76785;SHT30;66893;44.316;0.092;2023-04-24T14:37:58;22.70;46.49
76785;SHT30;66893;44.316;0.092;2023-04-24T14:40:24;22.68;46.58
76785;SHT30;66893;44.316;0.092;2023-04-24T14:42:49;22.72;46.61
76785;SHT30;66893;44.316;0.092;2023-04-24T14:45:15;22.81;46.61
76785;SHT30;66893;44.316;0.092;2023-04-24T14:47:41;22.86;46.37
76785;SHT30;66893;44.316;0.092;2023-04-24T14:50:07;22.95;46.43
76785;SHT30;66893;44.316;0.092;2023-04-24T14:52:33;22.99;46.31
76785;SHT30;66893;44.316;0.092;2023-04-24T14:54:58;22.99;46.04
76785;SHT30;66893;44.316;0.092;2023-04-24T14:57:24;22.98;46.14
76785;SHT30;66893;44.316;0.092;2023-04-24T14:59:49;22.98;46.25
76785;SHT30;66893;44.316;0.092;2023-04-24T15:02:15;22.94;46.22
76785;SHT30;66893;44.316;0.092;2023-04-24T15:04:40;22.88;46.30
76785;SHT30;66893;44.316;0.092;2023-04-24T15:07:06;22.78;46.27
76785;SHT30;66893;44.316;0.092;2023-04-24T15:09:31;22.71;46.45
76785;SHT30;66893;44.316;0.092;2023-04-24T15:11:58;22.70;46.54
76785;SHT30;66893;44.316;0.092;2023-04-24T15:14:23;22.65;46.63
76785;SHT30;66893;44.316;0.092;2023-04-24T15:16:49;22.71;46.62
76785;SHT30;66893;44.316;0.092;2023-04-24T15:19:14;22.71;46.52
76785;SHT30;66893;44.316;0.092;2023-04-24T15:21:40;22.63;46.48
76785;SHT30;66893;44.316;0.092;2023-04-24T15:24:07;22.60;46.75
76785;SHT30;66893;44.316;0.092;2023-04-24T15:26:33;22.53;46.72
76785;SHT30;66893;44.316;0.092;2023-04-24T15:28:58;22.47;46.82